Time;durP1;ratioP1;P1;durP2;ratioP2;P2;SDS_P1;SDS_P2;PMS_P1;PMS_P2;Temp;Humidity;BMP_temperature;BMP_pressure;BME280_temperature;BME280_humidity;BME280_pressure;Samples;Min_cycle;Max_cycle;Signal;HPM_P1;HPM_P2
2022/03/25 00:01:57;;;;;;;59.42;34.18;;;;;;;3.33;58.52;102413.49;1586108;88;21960;-79
2022/03/25 00:04:24;;;;;;;60.88;33.25;;;;;;;3.34;58.40;102412.72;1578905;87;21140;-80
2022/03/25 00:06:51;;;;;;;69.45;34.13;;;;;;;3.33;58.38;102408.29;1587912;87;21608;-79
2022/03/25 00:09:18;;;;;;;65.05;35.90;;;;;;;3.31;58.37;102405.95;1610577;87;21476;-79
2022/03/25 00:11:45;;;;;;;67.08;38.05;;;;;;;3.30;58.45;102410.27;1610257;87;21560;-80
2022/03/25 00:14:12;;;;;;;64.50;35.68;;;;;;;3.27;58.49;102416.91;1617573;87;21237;-80
2022/03/25 00:16:39;;;;;;;69.80;37.50;;;;;;;3.17;58.49;102394.81;1591555;88;21113;-80
2022/03/25 00:19:05;;;;;;;70.25;37.42;;;;;;;3.22;58.51;102413.92;1594489;88;22217;-81
2022/03/25 00:21:32;;;;;;;64.03;34.53;;;;;;;3.19;58.51;102413.69;1587482;87;21105;-79
2022/03/25 00:23:59;;;;;;;71.85;34.65;;;;;;;3.17;58.62;102408.72;1607572;87;21181;-80
2022/03/25 00:26:26;;;;;;;68.95;36.93;;;;;;;3.18;58.63;102402.75;1614131;87;21770;-80
2022/03/25 00:28:52;;;;;;;63.85;37.67;;;;;;;3.17;58.63;102410.42;1615868;87;21750;-80
2022/03/25 00:31:20;;;;;;;74.22;40.17;;;;;;;3.14;58.70;102403.29;1623877;86;21130;-80
2022/03/25 00:33:49;;;;;;;80.57;42.27;;;;;;;3.13;58.75;102401.45;1565924;88;21097;-80
2022/03/25 00:36:18;;;;;;;70.12;37.23;;;;;;;3.11;58.85;102400.42;1595197;87;21121;-81
2022/03/25 00:38:45;;;;;;;79.17;39.08;;;;;;;3.10;58.92;102407.73;1610345;87;21798;-81
2022/03/25 00:41:12;;;;;;;65.97;35.08;;;;;;;3.05;58.97;102398.23;1611697;87;21085;-81
2022/03/25 00:43:42;;;;;;;63.90;35.13;;;;;;;3.01;59.05;102397.47;1610187;87;21121;-81
2022/03/25 00:46:10;;;;;;;63.98;35.15;;;;;;;3.00;59.08;102406.04;1600428;87;21864;-81
2022/03/25 00:48:38;;;;;;;77.65;38.02;;;;;;;2.98;59.15;102397.61;1610553;87;21132;-80
2022/03/25 00:51:05;;;;;;;68.40;36.90;;;;;;;2.94;59.23;102394.24;1611011;87;22598;-81
2022/03/25 00:53:32;;;;;;;66.70;37.90;;;;;;;2.90;59.35;102391.38;1610771;87;21574;-80
2022/03/25 00:56:02;;;;;;;73.83;37.13;;;;;;;2.88;59.41;102395.55;1612478;87;21184;-81
2022/03/25 00:58:29;;;;;;;67.60;38.05;;;;;;;2.84;59.51;102389.58;1610603;87;21752;-80
2022/03/25 01:00:56;;;;;;;61.20;36.85;;;;;;;2.82;59.60;102385.95;1594362;88;21226;-80
2022/03/25 01:03:23;;;;;;;69.82;38.67;;;;;;;2.80;59.74;102380.12;1600101;88;21673;-80
2022/03/25 01:05:50;;;;;;;61.83;37.23;;;;;;;2.76;59.87;102373.75;1605262;87;21077;-81
2022/03/25 01:08:16;;;;;;;65.55;37.15;;;;;;;2.75;60.00;102373.62;1591727;88;21133;-80
2022/03/25 01:10:43;;;;;;;76.35;40.65;;;;;;;2.71;60.07;102373.35;1610568;87;21081;-80
2022/03/25 01:13:12;;;;;;;66.35;37.33;;;;;;;2.71;60.24;102369.85;1614908;87;21054;-80
2022/03/25 01:15:40;;;;;;;70.90;38.05;;;;;;;2.71;60.33;102372.45;1610477;87;21852;-80
2022/03/25 01:18:07;;;;;;;68.65;35.75;;;;;;;2.69;60.34;102367.52;1610779;87;21105;-80
2022/03/25 01:20:34;;;;;;;65.37;37.10;;;;;;;2.68;60.26;102369.59;1610858;87;21145;-80
2022/03/25 01:23:00;;;;;;;75.72;38.28;;;;;;;2.65;60.24;102365.45;1610821;87;21069;-80
2022/03/25 01:25:27;;;;;;;69.07;37.50;;;;;;;2.62;60.14;102362.19;1610496;87;21132;-80
2022/03/25 01:27:54;;;;;;;71.12;35.98;;;;;;;2.62;60.13;102359.59;1621038;87;21800;-80
2022/03/25 01:30:20;;;;;;;75.30;39.95;;;;;;;2.60;60.19;102363.75;1611301;87;21555;-80
2022/03/25 01:32:48;;;;;;;70.52;38.05;;;;;;;2.59;60.30;102358.42;1617415;87;21105;-80
2022/03/25 01:35:14;;;;;;;68.67;40.00;;;;;;;2.56;60.36;102359.09;1597460;88;21259;-80
2022/03/25 01:37:41;;;;;;;70.32;39.67;;;;;;;2.55;60.39;102364.16;1603298;87;21112;-80
2022/03/25 01:40:09;;;;;;;65.10;36.98;;;;;;;2.56;60.45;102360.79;1619261;88;21785;-80
2022/03/25 01:42:37;;;;;;;65.92;37.83;;;;;;;2.52;60.48;102357.92;1596990;88;21191;-80
2022/03/25 01:45:05;;;;;;;69.95;38.02;;;;;;;2.46;60.48;102358.72;1593348;88;21983;-80
2022/03/25 01:47:32;;;;;;;67.37;37.00;;;;;;;2.42;60.54;102357.95;1599291;88;21670;-80
2022/03/25 01:50:00;;;;;;;66.50;36.68;;;;;;;2.37;60.55;102352.75;1610772;87;21132;-80
2022/03/25 01:52:27;;;;;;;71.15;37.35;;;;;;;2.32;60.64;102357.95;1612378;87;22601;-80
2022/03/25 01:54:54;;;;;;;65.47;36.15;;;;;;;2.27;60.72;102351.44;1631655;85;21467;-80
2022/03/25 01:57:25;;;;;;;67.72;34.75;;;;;;;2.22;60.80;102354.07;1624360;87;22337;-80
2022/03/25 01:59:56;;;;;;;71.07;36.55;;;;;;;2.20;60.86;102356.93;1604291;87;21089;-80
2022/03/25 02:02:23;;;;;;;67.50;37.67;;;;;;;2.16;60.92;102357.42;1612660;87;21117;-80
2022/03/25 02:04:49;;;;;;;65.92;37.15;;;;;;;2.12;61.02;102352.35;1589127;88;21785;-80
2022/03/25 02:07:16;;;;;;;68.72;37.45;;;;;;;2.10;61.08;102353.92;1560140;90;21134;-80
2022/03/25 02:09:43;;;;;;;67.60;37.50;;;;;;;2.08;61.19;102355.11;1603613;88;21131;-81
2022/03/25 02:12:10;;;;;;;75.35;38.35;;;;;;;2.07;61.24;102357.17;1578743;89;21125;-81
2022/03/25 02:14:36;;;;;;;73.47;37.30;;;;;;;2.05;61.28;102351.34;1583859;89;21455;-81
2022/03/25 02:17:04;;;;;;;70.10;37.00;;;;;;;2.04;61.40;102347.81;1585606;88;21922;-81
2022/03/25 02:19:31;;;;;;;69.62;37.30;;;;;;;2.02;61.45;102354.97;1543193;91;21151;-81
2022/03/25 02:21:58;;;;;;;70.72;38.95;;;;;;;2.00;61.50;102356.13;1573974;89;21124;-80
2022/03/25 02:24:25;;;;;;;77.32;39.13;;;;;;;1.98;61.62;102358.98;1582447;89;21115;-80
2022/03/25 02:26:52;;;;;;;72.32;39.33;;;;;;;1.98;61.72;102356.39;1573231;89;21120;-80
2022/03/25 02:29:18;;;;;;;69.97;38.35;;;;;;;1.99;61.79;102354.69;1583449;89;21978;-81
2022/03/25 02:31:45;;;;;;;77.65;39.53;;;;;;;1.98;61.84;102351.20;1579491;89;21224;-80
2022/03/25 02:34:12;;;;;;;76.02;39.65;;;;;;;1.95;61.90;102349.63;1570349;89;21151;-80
2022/03/25 02:36:40;;;;;;;74.15;39.18;;;;;;;1.94;61.98;102350.42;1578017;89;21141;-81
2022/03/25 02:39:07;;;;;;;77.03;38.90;;;;;;;1.93;62.12;102349.89;1559736;89;21124;-80
2022/03/25 02:41:35;;;;;;;75.52;38.00;;;;;;;1.92;62.14;102348.08;1545950;90;21582;-80
2022/03/25 02:44:02;;;;;;;77.55;40.52;;;;;;;1.89;62.18;102353.00;1585890;89;21617;-81
2022/03/25 02:46:29;;;;;;;79.47;39.88;;;;;;;1.87;62.36;102350.67;1575709;89;21599;-81
2022/03/25 02:48:56;;;;;;;75.67;40.20;;;;;;;1.83;62.49;102352.09;1586142;89;21104;-80
2022/03/25 02:51:22;;;;;;;78.47;40.00;;;;;;;1.81;62.50;102347.16;1575463;90;21141;-80
2022/03/25 02:53:49;;;;;;;70.72;40.05;;;;;;;1.78;62.52;102348.18;1585478;88;21779;-81
2022/03/25 02:56:17;;;;;;;79.22;40.75;;;;;;;1.73;62.57;102338.72;1589459;88;21104;-80
2022/03/25 02:58:44;;;;;;;73.72;39.95;;;;;;;1.70;62.56;102338.84;1582070;88;21215;-80
2022/03/25 03:01:12;;;;;;;75.62;39.70;;;;;;;1.63;62.63;102332.19;1571827;89;21135;-81
2022/03/25 03:03:40;;;;;;;71.10;37.55;;;;;;;1.58;62.71;102338.70;1586200;89;21127;-81
2022/03/25 03:06:07;;;;;;;73.55;38.48;;;;;;;1.54;62.78;102334.02;1597657;87;21799;-81
2022/03/25 03:08:35;;;;;;;76.47;40.30;;;;;;;1.47;62.83;102338.15;1629346;86;21158;-81
2022/03/25 03:11:02;;;;;;;69.10;39.03;;;;;;;1.41;62.95;102334.63;1602349;88;21147;-81
2022/03/25 03:13:29;;;;;;;70.55;38.70;;;;;;;1.43;63.14;102341.27;1629452;86;21146;-81
2022/03/25 03:15:56;;;;;;;73.22;39.45;;;;;;;1.40;63.20;102334.09;1601734;88;21135;-81
2022/03/25 03:18:23;;;;;;;74.27;39.18;;;;;;;1.38;63.24;102337.34;1629350;86;23132;-81
2022/03/25 03:20:49;;;;;;;73.83;40.25;;;;;;;1.35;63.43;102328.89;1601885;88;21076;-80
2022/03/25 03:23:16;;;;;;;69.03;38.00;;;;;;;1.33;63.45;102335.27;1629082;86;21109;-80
2022/03/25 03:25:46;;;;;;;73.42;39.95;;;;;;;1.29;63.57;102337.04;1601516;88;21645;-79
2022/03/25 03:28:13;;;;;;;72.90;38.75;;;;;;;1.26;63.67;102336.79;1618405;87;21121;-79
2022/03/25 03:30:39;;;;;;;76.02;40.85;;;;;;;1.24;63.75;102332.22;1629187;86;21914;-80
2022/03/25 03:33:06;;;;;;;72.87;39.90;;;;;;;1.22;63.80;102331.19;1628570;86;21668;-80
2022/03/25 03:35:38;;;;;;;77.25;40.52;;;;;;;1.18;63.80;102332.59;1626072;86;21100;-80
2022/03/25 03:38:02;;;;;;;86.22;41.95;;;;;;;1.13;63.86;102331.30;1629335;86;21103;-81
2022/03/25 03:40:28;;;;;;;76.87;41.42;;;;;;;1.09;64.00;102331.78;1629396;86;21127;-81
2022/03/25 03:42:55;;;;;;;74.50;40.70;;;;;;;1.10;64.26;102337.50;1629440;86;21767;-81
2022/03/25 03:45:22;;;;;;;91.60;45.30;;;;;;;1.13;64.58;102338.69;1628609;86;21141;-81
2022/03/25 03:47:48;;;;;;;82.47;45.17;;;;;;;1.18;64.82;102336.88;1602055;88;21727;-81
2022/03/25 03:50:17;;;;;;;82.05;44.30;;;;;;;1.23;65.01;102333.92;1580452;89;22380;-81
2022/03/25 03:52:44;;;;;;;90.47;44.90;;;;;;;1.29;65.22;102333.55;1629884;86;21648;-81
2022/03/25 03:55:11;;;;;;;82.20;45.78;;;;;;;1.34;65.34;102333.57;1602215;88;21693;-81
2022/03/25 03:57:38;;;;;;;83.72;45.88;;;;;;;1.40;65.44;102332.80;1629495;86;21118;-81
2022/03/25 04:00:07;;;;;;;91.87;46.50;;;;;;;1.46;65.71;102330.73;1602266;88;21118;-81
2022/03/25 04:02:33;;;;;;;87.45;45.08;;;;;;;1.52;65.71;102330.35;1602078;88;21206;-80
2022/03/25 04:05:00;;;;;;;87.42;47.23;;;;;;;1.55;65.68;102334.52;1602338;88;21136;-80
2022/03/25 04:07:27;;;;;;;87.10;49.05;;;;;;;1.58;65.78;102338.70;1607841;87;21821;-80
2022/03/25 04:09:54;;;;;;;85.77;46.20;;;;;;;1.62;65.99;102338.17;1611502;87;21118;-79
2022/03/25 04:12:21;;;;;;;86.17;46.00;;;;;;;1.62;66.02;102324.30;1611791;87;21032;-80
2022/03/25 04:14:48;;;;;;;88.22;47.60;;;;;;;1.70;66.02;102341.03;1610840;87;21128;-80
2022/03/25 04:17:14;;;;;;;86.50;45.67;;;;;;;1.72;65.97;102337.27;1611834;87;21093;-80
2022/03/25 04:19:41;;;;;;;92.78;48.78;;;;;;;1.72;65.96;102339.47;1611854;87;21765;-82
2022/03/25 04:22:08;;;;;;;86.50;47.53;;;;;;;1.73;66.05;102341.31;1611951;87;21102;-79
2022/03/25 04:24:35;;;;;;;92.10;48.58;;;;;;;1.75;66.05;102342.34;1610869;87;21614;-80
2022/03/25 04:27:01;;;;;;;88.05;48.17;;;;;;;1.75;66.12;102338.45;1611860;87;21120;-80
2022/03/25 04:29:28;;;;;;;91.02;47.38;;;;;;;1.77;66.18;102338.98;1610481;87;21106;-80
2022/03/25 04:31:55;;;;;;;89.42;49.10;;;;;;;1.79;66.40;102339.63;1611283;87;22540;-80
2022/03/25 04:34:21;;;;;;;90.28;49.42;;;;;;;1.86;66.67;102334.55;1602376;87;21162;-80
2022/03/25 04:36:48;;;;;;;85.10;46.85;;;;;;;1.92;66.87;102333.80;1601666;87;21147;-80
2022/03/25 04:39:14;;;;;;;86.35;48.52;;;;;;;2.00;66.99;102328.86;1610662;87;21176;-81
2022/03/25 04:41:41;;;;;;;89.90;47.95;;;;;;;2.08;67.08;102329.50;1611554;87;21095;-81
2022/03/25 04:44:08;;;;;;;94.50;50.00;;;;;;;2.17;67.18;102328.08;1610506;87;22600;-81
2022/03/25 04:46:35;;;;;;;89.90;46.80;;;;;;;2.30;67.31;102324.43;1604981;87;21084;-80
2022/03/25 04:49:01;;;;;;;85.95;47.83;;;;;;;2.49;67.45;102326.86;1619553;87;21630;-80
2022/03/25 04:51:28;;;;;;;85.07;47.13;;;;;;;2.74;67.53;102323.31;1599872;88;21674;-81
2022/03/25 04:53:55;;;;;;;85.03;49.00;;;;;;;3.04;67.52;102317.09;1599312;88;21113;-81
2022/03/25 04:56:21;;;;;;;92.78;49.90;;;;;;;3.38;67.40;102314.57;1603836;87;22164;-81
2022/03/25 04:58:48;;;;;;;88.78;47.80;;;;;;;3.66;67.09;102311.13;1594277;87;21172;-81
2022/03/25 05:01:15;;;;;;;86.72;46.13;;;;;;;3.87;66.51;102313.59;1617150;87;21096;-80
2022/03/25 05:03:41;;;;;;;85.00;46.33;;;;;;;3.91;65.56;102306.52;1616394;86;21166;-80
2022/03/25 05:06:08;;;;;;;87.55;46.02;;;;;;;3.78;64.74;102312.88;1614508;86;22322;-81
2022/03/25 05:08:36;;;;;;;82.95;45.70;;;;;;;3.64;64.41;102309.18;1633515;86;21284;-81
2022/03/25 05:11:03;;;;;;;77.22;44.83;;;;;;;3.57;64.40;102321.23;1602798;88;21236;-81
2022/03/25 05:13:30;;;;;;;80.72;45.05;;;;;;;3.54;64.29;102317.08;1584017;89;21096;-78
2022/03/25 05:15:56;;;;;;;86.25;47.33;;;;;;;3.51;64.22;102316.45;1624018;86;21556;-81
2022/03/25 05:18:24;;;;;;;90.28;47.95;;;;;;;3.50;64.18;102306.41;1612687;87;21117;-82
2022/03/25 05:20:51;;;;;;;87.47;45.63;;;;;;;3.50;64.08;102314.63;1611520;87;22501;-78
2022/03/25 05:23:17;;;;;;;81.25;45.67;;;;;;;3.48;64.00;102309.29;1602182;87;21073;-82
2022/03/25 05:25:44;;;;;;;84.52;47.25;;;;;;;3.36;63.98;102281.02;1611130;87;21157;-82
2022/03/25 05:28:10;;;;;;;74.47;45.52;;;;;;;3.53;63.99;102314.87;1621787;87;21104;-83
2022/03/25 05:30:37;;;;;;;91.75;48.40;;;;;;;3.57;63.91;102316.02;1619551;87;21714;-80
2022/03/25 05:33:04;;;;;;;82.45;46.53;;;;;;;3.62;63.96;102319.50;1596190;87;22516;-79
2022/03/25 05:35:30;;;;;;;78.75;45.58;;;;;;;3.68;63.94;102312.16;1588557;87;21113;-79
2022/03/25 05:37:59;;;;;;;81.08;46.95;;;;;;;3.75;63.99;102306.11;1594967;87;21123;-79
2022/03/25 05:40:26;;;;;;;76.60;45.92;;;;;;;3.82;64.05;102315.82;1594970;87;21123;-80
2022/03/25 05:42:53;;;;;;;81.47;47.05;;;;;;;3.92;64.04;102311.33;1596137;87;21705;-80
2022/03/25 05:45:20;;;;;;;78.78;47.00;;;;;;;4.02;64.08;102311.25;1596267;87;21769;-78
2022/03/25 05:47:47;;;;;;;80.32;47.55;;;;;;;4.08;64.00;102312.61;1594766;87;21120;-80
2022/03/25 05:50:13;;;;;;;92.85;49.88;;;;;;;4.18;64.10;102315.92;1594886;87;21108;-80
2022/03/25 05:52:41;;;;;;;79.42;48.02;;;;;;;4.29;64.23;102312.02;1601689;87;21108;-78
2022/03/25 05:55:12;;;;;;;90.75;50.35;;;;;;;4.43;64.36;102314.75;1595543;87;21163;-81
2022/03/25 05:57:39;;;;;;;89.75;50.98;;;;;;;4.64;64.58;102310.25;1568410;87;21987;-80
2022/03/25 06:00:13;;;;;;;87.67;50.65;;;;;;;4.85;64.63;102309.21;1568830;89;21114;-81
2022/03/25 06:02:42;;;;;;;86.55;50.20;;;;;;;5.06;64.62;102314.18;1595194;87;21579;-79
2022/03/25 06:05:09;;;;;;;89.72;47.98;;;;;;;5.26;64.58;102310.41;1595254;87;21135;-76
2022/03/25 06:07:39;;;;;;;101.27;53.38;;;;;;;5.47;64.49;102308.41;1594625;87;21184;-76
2022/03/25 06:10:11;;;;;;;87.10;48.60;;;;;;;5.68;64.41;102312.02;1587591;87;21865;-78
2022/03/25 06:12:43;;;;;;;92.08;51.15;;;;;;;5.88;64.31;102320.84;1592058;87;21116;-76
2022/03/25 06:15:10;;;;;;;97.30;52.35;;;;;;;6.07;64.10;102308.67;1599733;87;21123;-77
2022/03/25 06:17:47;;;;;;;86.47;51.85;;;;;;;6.25;63.95;102309.41;1589101;88;21200;-78
2022/03/25 06:20:27;;;;;;;92.53;52.70;;;;;;;6.42;63.80;102305.82;1579689;88;21145;-80
2022/03/25 06:22:50;;;;;;;85.50;49.58;;;;;;;6.59;63.57;102308.66;1596692;87;22663;-79
2022/03/25 06:25:17;;;;;;;96.32;53.90;;;;;;;6.75;63.37;102318.00;1604753;87;21637;-79
2022/03/25 06:27:52;;;;;;;87.95;52.27;;;;;;;6.91;63.35;102321.23;1600223;88;21096;-78
2022/03/25 06:30:21;;;;;;;94.05;51.28;;;;;;;7.06;63.09;102321.32;1602948;87;21112;-79
2022/03/25 06:32:47;;;;;;;87.35;52.53;;;;;;;7.19;62.89;102309.92;1600117;87;21127;-77
2022/03/25 06:35:15;;;;;;;90.72;52.85;;;;;;;7.32;62.68;102307.66;1598399;87;21764;-77
2022/03/25 06:37:42;;;;;;;88.07;52.58;;;;;;;7.44;62.47;102303.20;1600627;87;21583;-77
2022/03/25 06:40:10;;;;;;;83.70;49.88;;;;;;;7.53;62.27;102301.16;1612463;87;21138;-78
2022/03/25 06:42:38;;;;;;;89.50;51.88;;;;;;;7.64;62.15;102302.20;1613569;87;21124;-78
2022/03/25 06:45:06;;;;;;;87.22;52.80;;;;;;;7.77;62.00;102298.22;1616574;86;21142;-77
2022/03/25 06:47:33;;;;;;;89.65;51.30;;;;;;;7.87;61.86;102301.91;1596205;88;21247;-78
2022/03/25 06:50:01;;;;;;;95.83;53.10;;;;;;;7.98;61.77;102302.58;1596451;89;21107;-78
2022/03/25 06:52:28;;;;;;;95.40;54.67;;;;;;;8.08;61.62;102306.23;1594874;88;21153;-77
2022/03/25 06:54:56;;;;;;;91.10;51.25;;;;;;;8.20;61.55;102298.19;1605661;87;21110;-78
2022/03/25 06:57:23;;;;;;;90.30;52.15;;;;;;;8.29;61.36;102297.84;1598746;88;21090;-78
2022/03/25 06:59:50;;;;;;;89.30;52.78;;;;;;;8.42;61.24;102302.13;1610344;87;21765;-77
2022/03/25 07:02:17;;;;;;;83.75;49.20;;;;;;;8.52;61.13;102303.14;1610751;87;21140;-78
2022/03/25 07:04:44;;;;;;;86.17;51.33;;;;;;;8.61;60.91;102298.43;1613718;87;21089;-78
2022/03/25 07:07:12;;;;;;;77.90;49.33;;;;;;;8.70;60.72;102296.34;1610472;87;21121;-78
2022/03/25 07:09:39;;;;;;;85.05;51.80;;;;;;;8.79;60.49;102299.91;1601135;88;21665;-78
2022/03/25 07:12:07;;;;;;;84.55;51.25;;;;;;;8.87;60.31;102297.30;1610334;87;21827;-77
2022/03/25 07:14:34;;;;;;;83.90;51.55;;;;;;;8.97;60.22;102297.83;1611341;87;21300;-78
2022/03/25 07:17:00;;;;;;;83.27;47.43;;;;;;;9.08;60.10;102297.59;1610433;87;21611;-78
2022/03/25 07:19:27;;;;;;;88.15;51.18;;;;;;;9.19;60.02;102303.45;1610492;87;21611;-78
2022/03/25 07:21:54;;;;;;;86.08;52.60;;;;;;;9.29;59.85;102304.48;1598933;88;21113;-78
2022/03/25 07:24:25;;;;;;;89.32;54.27;;;;;;;9.41;59.70;102305.55;1618808;87;21740;-78
2022/03/25 07:26:49;;;;;;;88.50;52.93;;;;;;;9.51;59.46;102303.00;1611788;84;21130;-77
2022/03/25 07:29:16;;;;;;;80.97;51.85;;;;;;;9.59;59.25;102298.16;1598808;88;21085;-77
2022/03/25 07:31:43;;;;;;;88.35;54.40;;;;;;;9.66;59.12;102301.19;1613193;87;21153;-77
2022/03/25 07:34:10;;;;;;;80.70;52.70;;;;;;;9.74;58.92;102300.28;1605338;87;21634;-77
2022/03/25 07:36:37;;;;;;;86.78;55.48;;;;;;;9.80;58.78;102299.32;1603286;87;40777;-78
2022/03/25 07:39:04;;;;;;;98.40;61.30;;;;;;;9.87;58.68;102295.27;1612352;87;21835;-77
2022/03/25 07:41:31;;;;;;;83.70;51.68;;;;;;;9.95;58.58;102299.23;1618357;87;21101;-77
2022/03/25 07:43:58;;;;;;;80.67;51.23;;;;;;;10.01;58.39;102299.53;1610830;87;21645;-77
2022/03/25 07:46:24;;;;;;;84.50;51.00;;;;;;;10.07;58.37;102301.58;1610602;87;21149;-78
2022/03/25 07:48:51;;;;;;;76.77;50.70;;;;;;;10.13;58.19;102304.52;1614731;87;21782;-78
2022/03/25 07:51:18;;;;;;;82.65;52.70;;;;;;;10.19;58.09;102293.02;1609875;87;21116;-78
2022/03/25 07:53:45;;;;;;;79.10;50.70;;;;;;;10.27;57.98;102298.67;1609977;87;21133;-78
2022/03/25 07:56:11;;;;;;;81.08;51.02;;;;;;;10.33;57.77;102286.27;1609845;87;21146;-78
2022/03/25 07:58:38;;;;;;;85.17;50.60;;;;;;;10.38;57.64;102293.96;1612149;87;21116;-78
2022/03/25 08:01:05;;;;;;;76.75;50.95;;;;;;;10.42;57.63;102292.89;1612228;87;21769;-78
2022/03/25 08:03:32;;;;;;;76.55;50.38;;;;;;;10.48;57.50;102293.62;1613032;87;21137;-77
2022/03/25 08:05:58;;;;;;;86.37;52.38;;;;;;;10.53;57.33;102301.34;1613443;87;21093;-78
2022/03/25 08:08:26;;;;;;;81.70;52.88;;;;;;;10.60;57.25;102301.22;1556099;89;21153;-78
2022/03/25 08:10:55;;;;;;;78.87;51.35;;;;;;;10.66;57.17;102300.19;1590265;89;21101;-77
2022/03/25 08:13:21;;;;;;;79.80;50.75;;;;;;;10.73;57.13;102308.00;1589280;88;22644;-77
2022/03/25 08:15:48;;;;;;;78.22;48.75;;;;;;;10.79;56.92;102301.70;1560844;90;21624;-78
2022/03/25 08:18:16;;;;;;;76.72;45.35;;;;;;;10.85;56.67;102299.39;1568579;89;21135;-78
2022/03/25 08:20:45;;;;;;;82.12;47.35;;;;;;;10.88;56.48;102299.52;1564708;89;21151;-78
2022/03/25 08:28:58;;;;;;;65.12;38.85;;;;;;;11.02;55.91;102293.20;1561493;89;21095;-78
2022/03/25 08:31:24;;;;;;;55.15;34.85;;;;;;;11.08;55.66;102294.80;1575037;89;21174;-78
2022/03/25 08:33:51;;;;;;;50.50;33.38;;;;;;;11.16;55.50;102296.90;1582972;89;21721;-78
2022/03/25 08:36:18;;;;;;;52.25;30.97;;;;;;;11.22;55.13;102295.86;1603990;87;21479;-78
2022/03/25 08:38:45;;;;;;;39.00;26.35;;;;;;;11.29;54.71;102304.13;1592322;88;21821;-78
2022/03/25 08:41:12;;;;;;;48.75;28.52;;;;;;;11.37;54.25;102309.75;1561518;88;21167;-78
2022/03/25 08:43:43;;;;;;;43.85;26.15;;;;;;;11.42;53.80;102304.72;1579391;88;21971;-78
2022/03/25 08:46:20;;;;;;;52.05;26.97;;;;;;;11.47;53.35;102300.14;1560511;90;21095;-77
2022/03/25 08:48:47;;;;;;;40.12;25.45;;;;;;;11.49;53.41;102294.95;1567276;89;21110;-78
2022/03/25 08:51:14;;;;;;;41.88;24.65;;;;;;;11.54;53.28;102301.30;1575485;88;21731;-79
2022/03/25 08:53:41;;;;;;;40.35;26.62;;;;;;;11.58;53.24;102294.44;1560248;90;21621;-78
2022/03/25 08:56:11;;;;;;;44.73;25.50;;;;;;;11.63;53.21;102289.86;1567804;89;21159;-79
2022/03/25 08:58:37;;;;;;;41.95;25.37;;;;;;;11.70;53.13;102294.12;1582408;88;21579;-78
2022/03/25 09:01:04;;;;;;;37.88;25.37;;;;;;;11.75;53.00;102286.90;1562549;90;21141;-78
2022/03/25 09:03:31;;;;;;;44.27;26.12;;;;;;;11.79;53.02;102282.23;1565197;89;21823;-78
2022/03/25 09:05:57;;;;;;;40.20;25.88;;;;;;;11.87;53.06;102283.89;1574889;89;21131;-78
2022/03/25 09:08:24;;;;;;;43.15;27.10;;;;;;;11.94;53.14;102281.16;1590295;87;21128;-77
2022/03/25 09:10:53;;;;;;;53.33;29.72;;;;;;;11.99;53.13;102292.40;1614664;87;21404;-78
2022/03/25 09:13:20;;;;;;;47.90;28.50;;;;;;;12.05;53.08;102282.09;1601291;87;21103;-78
2022/03/25 09:15:46;;;;;;;42.62;28.32;;;;;;;12.12;53.06;102288.95;1595750;87;21753;-78
2022/03/25 09:18:13;;;;;;;47.70;28.50;;;;;;;12.19;53.12;102288.39;1599820;87;21103;-78
2022/03/25 09:20:40;;;;;;;47.45;29.35;;;;;;;12.25;53.03;102287.33;1579868;89;21182;-76
2022/03/25 09:23:08;;;;;;;49.33;31.60;;;;;;;12.33;52.91;102294.25;1571225;88;21134;-76
2022/03/25 09:25:35;;;;;;;45.03;28.73;;;;;;;12.38;52.68;102292.28;1600133;87;21274;-77
2022/03/25 09:28:02;;;;;;;52.93;30.77;;;;;;;12.41;52.62;102290.21;1616497;87;23128;-75
2022/03/25 09:30:29;;;;;;;48.78;29.87;;;;;;;12.48;52.70;102288.71;1586867;88;21082;-76
2022/03/25 09:32:55;;;;;;;43.20;28.62;;;;;;;12.54;52.54;102281.96;1606278;87;21042;-76
2022/03/25 09:35:22;;;;;;;45.25;28.45;;;;;;;12.63;52.48;102286.70;1603214;87;21598;-76
2022/03/25 09:37:50;;;;;;;43.70;27.95;;;;;;;12.69;52.29;102283.41;1618366;87;21630;-77
2022/03/25 09:40:23;;;;;;;46.02;28.05;;;;;;;12.73;52.07;102278.33;1618456;87;21781;-77
2022/03/25 09:42:51;;;;;;;41.40;26.27;;;;;;;12.77;52.04;102271.44;1618262;87;21394;-77
2022/03/25 09:45:19;;;;;;;48.75;28.05;;;;;;;12.83;51.67;102279.59;1618163;87;21130;-77
2022/03/25 09:47:46;;;;;;;42.98;27.77;;;;;;;12.87;51.68;102280.63;1618340;87;21735;-77
2022/03/25 09:50:17;;;;;;;54.55;27.37;;;;;;;12.90;51.47;102280.33;1618458;87;21097;-77
2022/03/25 09:52:44;;;;;;;50.85;31.82;;;;;;;12.93;51.44;102285.75;1618607;87;21937;-78
2022/03/25 09:55:12;;;;;;;44.03;28.87;;;;;;;12.95;51.08;102288.03;1618482;87;21095;-77
2022/03/25 09:57:39;;;;;;;46.40;28.07;;;;;;;12.97;51.10;102286.34;1618498;87;21102;-77
2022/03/25 10:00:07;;;;;;;45.08;30.35;;;;;;;12.99;51.00;102293.91;1618328;87;21409;-77
2022/03/25 10:02:34;;;;;;;49.67;30.35;;;;;;;13.02;50.90;102289.16;1616342;87;21581;-77
2022/03/25 10:05:00;;;;;;;49.18;29.05;;;;;;;13.08;51.07;102287.17;1590010;88;21817;-78
2022/03/25 10:07:31;;;;;;;45.45;28.38;;;;;;;13.14;50.91;102292.30;1558393;89;21118;-77
2022/03/25 10:10:19;;;;;;;42.27;26.93;;;;;;;13.18;50.83;102281.00;1618674;87;21660;-77
2022/03/25 10:12:48;;;;;;;37.80;26.05;;;;;;;13.21;50.72;102282.45;1607359;86;21131;-77
2022/03/25 10:15:22;;;;;;;40.40;26.48;;;;;;;13.28;50.75;102291.50;1602373;88;21158;-77
2022/03/25 10:17:56;;;;;;;39.33;25.37;;;;;;;13.34;50.60;102300.13;1629382;86;21793;-77
2022/03/25 10:20:30;;;;;;;44.25;27.98;;;;;;;13.39;50.53;102291.95;1602131;88;21084;-77
2022/03/25 10:23:14;;;;;;;46.35;28.27;;;;;;;13.39;50.12;102290.20;1629371;86;21121;-77
2022/03/25 10:25:51;;;;;;;;;;;;;;;13.39;50.10;102289.31;1604533;88;21119;-77
2022/03/25 10:28:30;;;;;;;42.90;24.20;;;;;;;13.40;49.93;102285.41;1602005;88;20540;-77
2022/03/25 10:31:00;;;;;;;40.58;27.22;;;;;;;13.43;50.01;102285.04;1629081;86;21991;-77
2022/03/25 10:33:30;;;;;;;38.78;24.67;;;;;;;13.46;49.70;102277.20;1601795;88;21650;-77
2022/03/25 10:36:09;;;;;;;38.05;25.17;;;;;;;13.45;49.65;102278.06;1588730;88;21170;-77
2022/03/25 10:38:52;;;;;;;35.43;24.55;;;;;;;13.48;49.82;102270.25;1620385;86;21732;-77
2022/03/25 10:41:22;;;;;;;36.40;23.40;;;;;;;13.54;49.69;102271.36;1602095;88;21147;-77
2022/03/25 10:44:04;;;;;;;39.67;25.20;;;;;;;13.61;49.62;102269.86;1629318;86;21482;-77
2022/03/25 10:46:45;;;;;;;40.12;29.98;;;;;;;13.65;49.51;102269.12;1594717;88;21752;-77
2022/03/25 10:49:13;;;;;;;35.88;25.27;;;;;;;13.68;49.38;102267.89;1629351;86;21131;-77
2022/03/25 10:51:42;;;;;;;31.97;22.48;;;;;;;13.65;49.39;102246.63;1601835;88;21385;-77
2022/03/25 10:54:12;;;;;;;32.70;22.62;;;;;;;13.76;49.17;102260.26;1629093;86;21135;-77
2022/03/25 10:56:53;;;;;;;39.48;23.45;;;;;;;13.80;49.15;102255.55;1602218;88;22463;-77
2022/03/25 10:59:31;;;;;;;33.92;22.17;;;;;;;13.83;49.07;102250.34;1629294;86;21128;-77
2022/03/25 11:02:05;;;;;;;39.63;24.67;;;;;;;13.89;48.86;102255.88;1602050;88;21105;-77
2022/03/25 11:04:32;;;;;;;39.65;24.55;;;;;;;13.91;48.75;102252.86;1629151;86;26480;-78
2022/03/25 11:07:01;;;;;;;38.02;23.65;;;;;;;13.96;48.81;102250.36;1601924;88;21139;-78
2022/03/25 11:09:27;;;;;;;37.98;23.87;;;;;;;14.03;48.68;102252.38;1607909;86;23141;-78
2022/03/25 11:11:55;;;;;;;38.23;23.20;;;;;;;14.09;48.53;102247.72;1600583;88;21186;-78
2022/03/25 11:14:22;;;;;;;37.75;20.77;;;;;;;14.14;48.45;102248.79;1601219;88;21165;-77
2022/03/25 11:16:59;;;;;;;40.52;24.47;;;;;;;14.19;48.36;102237.94;1596381;88;21436;-78
2022/03/25 11:19:26;;;;;;;39.40;23.92;;;;;;;14.23;48.21;102241.55;1611391;87;21108;-78
2022/03/25 11:22:00;;;;;;;31.17;20.82;;;;;;;14.27;48.08;102239.52;1610379;87;21322;-78
2022/03/25 11:24:33;;;;;;;32.67;21.00;;;;;;;14.29;48.06;102242.68;1606397;87;21125;-77